Time;durP1;ratioP1;P1;durP2;ratioP2;P2;SDS_P1;SDS_P2;PMS_P1;PMS_P2;Temp;Humidity;BMP_temperature;BMP_pressure;BME280_temperature;BME280_humidity;BME280_pressure;Samples;Min_cycle;Max_cycle;Signal;HPM_P1;HPM_P2
2022/11/01 00:00:09;;;;;;;;;;;12.40;99.90;;;;;;5118973;28;19915;-78
2022/11/01 00:02:34;;;;;;;;;;;12.40;99.90;;;;;;5117677;28;19924;-76
2022/11/01 00:05:00;;;;;;;;;;;12.50;99.90;;;;;;5117738;28;20333;-76
2022/11/01 00:07:26;;;;;;;;;;;12.40;99.90;;;;;;5117793;28;19914;-76
2022/11/01 00:09:51;;;;;;;;;;;12.40;99.90;;;;;;5117714;28;19908;-76
2022/11/01 00:12:17;;;;;;;;;;;12.40;99.90;;;;;;5117706;28;19907;-77
2022/11/01 00:14:42;;;;;;;;;;;12.40;99.90;;;;;;5117615;28;19957;-76
2022/11/01 00:17:08;;;;;;;;;;;12.40;99.90;;;;;;5117599;28;19981;-77
2022/11/01 00:19:33;;;;;;;;;;;12.40;99.90;;;;;;5117815;28;19907;-78
2022/11/01 00:21:59;;;;;;;;;;;12.40;99.90;;;;;;5117456;28;19915;-76
2022/11/01 00:24:24;;;;;;;;;;;12.40;99.90;;;;;;5117319;28;19980;-77
2022/11/01 00:26:50;;;;;;;;;;;12.30;99.90;;;;;;5117437;28;20341;-76
2022/11/01 00:29:15;;;;;;;;;;;12.30;99.90;;;;;;5117615;28;20363;-77
2022/11/01 00:31:41;;;;;;;;;;;12.30;99.90;;;;;;5117271;28;19911;-77
2022/11/01 00:34:06;;;;;;;;;;;12.30;99.90;;;;;;5117477;28;19986;-76
2022/11/01 00:36:32;;;;;;;;;;;12.20;99.90;;;;;;5117156;28;19908;-75
2022/11/01 00:38:58;;;;;;;;;;;12.20;99.90;;;;;;5117156;28;19912;-77
2022/11/01 00:41:24;;;;;;;;;;;12.20;99.90;;;;;;5117423;28;19908;-76
2022/11/01 00:43:50;;;;;;;;;;;12.20;99.90;;;;;;5117018;28;20317;-77
2022/11/01 00:46:16;;;;;;;;;;;12.10;99.90;;;;;;5117073;28;19915;-76
2022/11/01 00:48:41;;;;;;;;;;;12.10;99.90;;;;;;5116975;28;19957;-76
2022/11/01 00:51:07;;;;;;;;;;;12.10;99.90;;;;;;5116977;28;20001;-78
2022/11/01 00:53:32;;;;;;;;;;;12.10;99.90;;;;;;5117158;28;20276;-78
2022/11/01 00:56:01;;;;;;;;;;;12.00;99.90;;;;;;5116870;28;19919;-76
2022/11/01 00:58:27;;;;;;;;;;;12.00;99.90;;;;;;5117108;28;20014;-75
2022/11/01 01:00:52;;;;;;;;;;;11.90;99.90;;;;;;5117143;28;19940;-78
2022/11/01 01:03:18;;;;;;;;;;;11.90;99.90;;;;;;5116133;28;19919;-77
2022/11/01 01:05:43;;;;;;;;;;;11.90;99.90;;;;;;5116541;28;20387;-77
2022/11/01 01:08:09;;;;;;;;;;;11.90;99.90;;;;;;5116605;28;19965;-77
2022/11/01 01:10:35;;;;;;;;;;;11.90;99.90;;;;;;5116877;28;20045;-76
2022/11/01 01:13:01;;;;;;;;;;;11.80;99.90;;;;;;5116542;28;19912;-77
2022/11/01 01:15:26;;;;;;;;;;;11.90;99.90;;;;;;5116467;28;19908;-77
2022/11/01 01:17:52;;;;;;;;;;;11.80;99.90;;;;;;5116428;28;19914;-78
2022/11/01 01:20:19;;;;;;;;;;;11.80;99.90;;;;;;5116973;28;19912;-77
2022/11/01 01:22:44;;;;;;;;;;;11.80;99.90;;;;;;5116232;28;20330;-78
2022/11/01 01:25:10;;;;;;;;;;;11.90;99.90;;;;;;5116167;28;20010;-77
2022/11/01 01:27:36;;;;;;;;;;;11.90;99.90;;;;;;5116215;28;19961;-77
2022/11/01 01:30:02;;;;;;;;;;;11.90;99.90;;;;;;5116206;28;19912;-78
2022/11/01 01:32:28;;;;;;;;;;;11.90;99.90;;;;;;5116378;28;19919;-77
2022/11/01 01:35:12;;;;;;;;;;;11.90;99.90;;;;;;5116057;28;20295;-76
2022/11/01 01:37:37;;;;;;;;;;;11.90;99.90;;;;;;5116022;28;19908;-77
2022/11/01 01:40:04;;;;;;;;;;;11.90;99.90;;;;;;5116598;28;20347;-76
2022/11/01 01:42:29;;;;;;;;;;;11.90;99.90;;;;;;5116211;28;19960;-77
2022/11/01 01:44:55;;;;;;;;;;;11.90;99.90;;;;;;5115852;28;20010;-76
2022/11/01 01:47:20;;;;;;;;;;;11.80;99.90;;;;;;5116393;28;20351;-75
2022/11/01 01:49:47;;;;;;;;;;;11.90;99.90;;;;;;5115799;28;19949;-75
2022/11/01 01:52:13;;;;;;;;;;;11.90;99.90;;;;;;5115761;28;19907;-76
2022/11/01 01:54:38;;;;;;;;;;;11.90;99.90;;;;;;5116211;28;19918;-76
2022/11/01 01:57:04;;;;;;;;;;;11.90;99.90;;;;;;5115919;28;20379;-76
2022/11/01 01:59:30;;;;;;;;;;;11.90;99.90;;;;;;5116163;28;20352;-76
2022/11/01 02:01:57;;;;;;;;;;;11.90;99.90;;;;;;5115377;28;20352;-76
2022/11/01 02:04:35;;;;;;;;;;;12.00;99.90;;;;;;5116004;28;20004;-77
2022/11/01 02:07:00;;;;;;;;;;;11.90;99.90;;;;;;5115425;28;19951;-77
2022/11/01 02:09:26;;;;;;;;;;;11.90;99.90;;;;;;5115418;28;19958;-77
2022/11/01 02:11:51;;;;;;;;;;;11.80;99.90;;;;;;5115359;28;19911;-76
2022/11/01 02:14:17;;;;;;;;;;;11.80;99.90;;;;;;5115327;28;19908;-77
2022/11/01 02:16:55;;;;;;;;;;;11.90;99.90;;;;;;5115729;28;20351;-76
2022/11/01 02:19:21;;;;;;;;;;;11.90;99.90;;;;;;5115208;28;20447;-78
2022/11/01 02:21:49;;;;;;;;;;;11.90;99.90;;;;;;5115444;28;19960;-77
2022/11/01 02:24:26;;;;;;;;;;;11.90;99.90;;;;;;5114980;28;19911;-76
2022/11/01 02:27:07;;;;;;;;;;;11.90;99.90;;;;;;5115344;28;19973;-77
2022/11/01 02:29:38;;;;;;;;;;;11.80;99.90;;;;;;5115269;28;20389;-76
2022/11/01 02:32:06;;;;;;;;;;;11.80;99.90;;;;;;5115000;28;19908;-76
2022/11/01 02:34:40;;;;;;;;;;;11.90;99.90;;;;;;5115010;28;20011;-76
2022/11/01 02:37:06;;;;;;;;;;;11.80;99.90;;;;;;5115271;28;20012;-77
2022/11/01 02:39:33;;;;;;;;;;;11.80;99.90;;;;;;5115116;28;19908;-78
2022/11/01 02:42:03;;;;;;;;;;;11.70;99.90;;;;;;5114812;28;19950;-76
2022/11/01 02:44:32;;;;;;;;;;;11.80;99.90;;;;;;5115237;28;20006;-76
2022/11/01 02:47:00;;;;;;;;;;;11.80;99.90;;;;;;5096470;28;20084;-77
2022/11/01 02:49:27;;;;;;;;;;;11.90;99.90;;;;;;5115772;28;19947;-77
2022/11/01 02:51:54;;;;;;;;;;;11.90;99.90;;;;;;5114625;28;19908;-76
2022/11/01 02:54:21;;;;;;;;;;;11.90;99.90;;;;;;5114869;28;19915;-76
2022/11/01 02:56:47;;;;;;;;;;;11.90;99.90;;;;;;5114551;28;20316;-76
2022/11/01 02:59:18;;;;;;;;;;;12.00;99.90;;;;;;5096223;28;20000;-76
2022/11/01 03:01:49;;;;;;;;;;;12.10;99.90;;;;;;5114293;28;19919;-77
2022/11/01 03:04:15;;;;;;;;;;;12.10;99.90;;;;;;5114717;28;19918;-76
2022/11/01 03:06:45;;;;;;;;;;;12.10;99.90;;;;;;5114379;28;20318;-76
2022/11/01 03:09:11;;;;;;;;;;;12.10;99.90;;;;;;5114617;28;19908;-76
2022/11/01 03:11:55;;;;;;;;;;;12.10;99.90;;;;;;5114329;28;19908;-76
2022/11/01 03:14:30;;;;;;;;;;;12.10;99.90;;;;;;5114334;28;19912;-76
2022/11/01 03:16:59;;;;;;;;;;;12.20;99.90;;;;;;5114557;28;19914;-75
2022/11/01 03:19:24;;;;;;;;;;;12.20;99.90;;;;;;5114245;28;20386;-76
2022/11/01 03:22:08;;;;;;;;;;;12.20;99.90;;;;;;5114806;28;19911;-76
2022/11/01 03:24:54;;;;;;;;;;;12.20;99.90;;;;;;5114126;28;19916;-76
2022/11/01 03:27:20;;;;;;;;;;;12.20;99.90;;;;;;5095608;28;19908;-76
2022/11/01 03:30:05;;;;;;;;;;;12.30;99.90;;;;;;5114140;28;19915;-77
2022/11/01 03:32:35;;;;;;;;;;;12.40;99.90;;;;;;5113278;28;20352;-77
2022/11/01 03:35:02;;;;;;;;;;;12.30;99.90;;;;;;5114401;28;19990;-75
2022/11/01 03:37:29;;;;;;;;;;;12.40;99.90;;;;;;5114042;28;20473;-76
2022/11/01 03:39:56;;;;;;;;;;;12.40;99.90;;;;;;5114006;28;19914;-77
2022/11/01 03:42:22;;;;;;;;;;;12.40;99.90;;;;;;5114552;28;20397;-76
2022/11/01 03:44:49;;;;;;;;;;;12.40;99.90;;;;;;5113960;28;19923;-76
2022/11/01 03:47:15;;;;;;;;;;;12.40;99.90;;;;;;5113969;28;19908;-76
2022/11/01 03:49:41;;;;;;;;;;;12.40;99.90;;;;;;5115034;28;19907;-76
2022/11/01 03:52:06;;;;;;;;;;;12.50;99.90;;;;;;5113964;28;19960;-77
2022/11/01 03:54:32;;;;;;;;;;;12.50;99.90;;;;;;5114480;28;20368;-76
2022/11/01 03:56:58;;;;;;;;;;;12.50;99.90;;;;;;5113915;28;19916;-76
2022/11/01 03:59:23;;;;;;;;;;;12.50;99.90;;;;;;5114409;28;19907;-77
2022/11/01 04:01:48;;;;;;;;;;;12.40;99.90;;;;;;5113665;28;19920;-77
2022/11/01 04:04:14;;;;;;;;;;;12.50;99.90;;;;;;5113746;28;19918;-76
2022/11/01 04:06:40;;;;;;;;;;;12.40;99.90;;;;;;5114065;28;20028;-76
2022/11/01 04:09:05;;;;;;;;;;;12.40;99.90;;;;;;5114037;28;19915;-75
2022/11/01 04:11:31;;;;;;;;;;;12.30;99.90;;;;;;5113796;28;19991;-76
2022/11/01 04:20:31;;;;;;;;;;;12.30;99.90;;;;;;5113752;28;19994;-77
2022/11/01 04:22:10;;;;;;;;;;;12.20;99.90;;;;;;5113957;28;20352;-76
2022/11/01 04:24:36;;;;;;;;;;;12.10;99.90;;;;;;5095342;28;19911;-75
2022/11/01 04:27:01;;;;;;;;;;;12.10;99.90;;;;;;5113633;28;19908;-75
2022/11/01 04:29:27;;;;;;;;;;;12.10;99.90;;;;;;5113609;28;19915;-76
2022/11/01 04:31:52;;;;;;;;;;;12.10;99.90;;;;;;5113844;28;19930;-76
2022/11/01 04:34:40;;;;;;;;;;;12.10;99.90;;;;;;5113583;28;19973;-76
2022/11/01 04:37:03;;;;;;;;;;;12.00;99.90;;;;;;5113383;28;19908;-76
2022/11/01 04:39:28;;;;;;;;;;;12.00;99.90;;;;;;5115503;28;20256;-76
2022/11/01 04:41:54;;;;;;;;;;;12.00;99.90;;;;;;5117435;28;19982;-76
2022/11/01 04:44:19;;;;;;;;;;;12.00;99.90;;;;;;5117081;28;19912;-77
2022/11/01 04:46:45;;;;;;;;;;;12.00;99.90;;;;;;5117397;28;19915;-76
2022/11/01 04:49:10;;;;;;;;;;;12.00;99.90;;;;;;5117064;28;19915;-76
2022/11/01 04:51:39;;;;;;;;;;;12.00;99.90;;;;;;5117529;28;19908;-75
2022/11/01 04:54:05;;;;;;;;;;;12.00;99.90;;;;;;5117203;28;19908;-78
2022/11/01 04:56:31;;;;;;;;;;;12.00;99.90;;;;;;5116855;28;19915;-76
2022/11/01 04:58:57;;;;;;;;;;;12.00;99.90;;;;;;5116811;28;19942;-77
2022/11/01 05:01:22;;;;;;;;;;;12.00;99.90;;;;;;5116584;28;19966;-76
2022/11/01 05:03:49;;;;;;;;;;;12.00;99.90;;;;;;5116953;28;19951;-77
2022/11/01 05:06:15;;;;;;;;;;;12.00;99.90;;;;;;5116704;28;19908;-78
2022/11/01 05:08:40;;;;;;;;;;;12.00;99.90;;;;;;5116596;28;19915;-76
2022/11/01 05:11:06;;;;;;;;;;;12.00;99.90;;;;;;5116566;28;19951;-77
2022/11/01 05:13:31;;;;;;;;;;;11.90;99.90;;;;;;5116533;28;19908;-77
2022/11/01 05:15:57;;;;;;;;;;;11.90;99.90;;;;;;5116456;28;20427;-77
2022/11/01 05:18:22;;;;;;;;;;;12.00;99.90;;;;;;5116455;28;19908;-76
2022/11/01 05:20:48;;;;;;;;;;;12.00;99.90;;;;;;5116699;28;19912;-76
2022/11/01 05:23:13;;;;;;;;;;;12.00;99.90;;;;;;5116204;28;19908;-77
2022/11/01 05:25:39;;;;;;;;;;;12.00;99.90;;;;;;5116338;28;19915;-77
2022/11/01 05:28:06;;;;;;;;;;;11.90;99.90;;;;;;5116551;28;19973;-76
2022/11/01 05:30:32;;;;;;;;;;;12.00;99.90;;;;;;5116196;28;19907;-77
2022/11/01 05:32:58;;;;;;;;;;;11.90;99.90;;;;;;5116139;28;19914;-76
2022/11/01 05:35:24;;;;;;;;;;;12.00;99.90;;;;;;5116113;28;20451;-78
2022/11/01 05:37:50;;;;;;;;;;;11.90;99.90;;;;;;5116653;28;19947;-77
2022/11/01 05:40:15;;;;;;;;;;;11.90;99.90;;;;;;5116316;28;19914;-76
2022/11/01 05:42:41;;;;;;;;;;;11.90;99.90;;;;;;5116286;28;20005;-76
2022/11/01 05:45:08;;;;;;;;;;;11.90;99.90;;;;;;5115827;28;19912;-76
2022/11/01 05:47:34;;;;;;;;;;;12.00;99.90;;;;;;5116400;28;19908;-76
2022/11/01 05:49:59;;;;;;;;;;;11.90;99.90;;;;;;5116187;28;19916;-76
2022/11/01 05:52:25;;;;;;;;;;;11.90;99.90;;;;;;5115784;28;20360;-78
2022/11/01 05:54:50;;;;;;;;;;;11.90;99.90;;;;;;5115987;28;19912;-76
2022/11/01 05:57:16;;;;;;;;;;;11.90;99.90;;;;;;5115705;28;19908;-77
2022/11/01 05:59:41;;;;;;;;;;;11.90;99.90;;;;;;5115913;28;20399;-77
2022/11/01 06:02:07;;;;;;;;;;;11.90;99.90;;;;;;5115515;28;19919;-75
2022/11/01 06:04:32;;;;;;;;;;;11.90;99.90;;;;;;5115434;28;19918;-77
2022/11/01 06:06:58;;;;;;;;;;;11.90;99.90;;;;;;5115804;28;19916;-76
2022/11/01 06:09:23;;;;;;;;;;;11.90;99.90;;;;;;5115391;28;20264;-78
2022/11/01 06:11:49;;;;;;;;;;;11.90;99.90;;;;;;5115378;28;19947;-78
2022/11/01 06:14:14;;;;;;;;;;;11.90;99.90;;;;;;5115643;28;19914;-76
2022/11/01 06:16:40;;;;;;;;;;;11.90;99.90;;;;;;5115287;28;19960;-76
2022/11/01 06:19:05;;;;;;;;;;;11.90;99.90;;;;;;5115819;28;19908;-76
2022/11/01 06:21:31;;;;;;;;;;;11.90;99.90;;;;;;5115234;28;19999;-78
2022/11/01 06:23:56;;;;;;;;;;;11.90;99.90;;;;;;5115035;28;19961;-77
2022/11/01 06:26:22;;;;;;;;;;;11.90;99.90;;;;;;5115332;28;19908;-77
2022/11/01 06:28:47;;;;;;;;;;;11.90;99.90;;;;;;5115040;28;19908;-77
2022/11/01 06:31:13;;;;;;;;;;;11.90;99.90;;;;;;5115021;28;19908;-77
2022/11/01 06:33:38;;;;;;;;;;;11.90;99.90;;;;;;5115236;28;19919;-76
2022/11/01 06:36:04;;;;;;;;;;;11.90;99.90;;;;;;5114925;28;19915;-76
2022/11/01 06:38:30;;;;;;;;;;;11.90;99.90;;;;;;5115156;28;20364;-76
2022/11/01 06:40:55;;;;;;;;;;;11.90;99.90;;;;;;5096630;28;20000;-76
2022/11/01 06:43:21;;;;;;;;;;;11.90;99.90;;;;;;5115001;28;19916;-78
2022/11/01 06:45:46;;;;;;;;;;;11.90;99.90;;;;;;5114750;28;19912;-77
2022/11/01 06:48:12;;;;;;;;;;;11.90;99.90;;;;;;5115274;28;19960;-76
2022/11/01 06:50:37;;;;;;;;;;;11.90;99.90;;;;;;5115255;28;20078;-76
2022/11/01 06:53:03;;;;;;;;;;;11.90;99.90;;;;;;5114911;28;19947;-77
2022/11/01 06:55:29;;;;;;;;;;;11.90;99.90;;;;;;5114589;28;20325;-78
2022/11/01 06:57:58;;;;;;;;;;;11.90;99.90;;;;;;5114553;28;19907;-76
2022/11/01 07:00:24;;;;;;;;;;;11.90;99.90;;;;;;5115098;28;19915;-77
2022/11/01 07:02:59;;;;;;;;;;;12.00;99.90;;;;;;5113362;28;20307;-76
2022/11/01 07:05:25;;;;;;;;;;;12.00;99.90;;;;;;5095880;28;19912;-77
2022/11/01 07:07:52;;;;;;;;;;;12.00;99.90;;;;;;5114454;28;19914;-77
2022/11/01 07:10:17;;;;;;;;;;;12.00;99.90;;;;;;5114668;28;20403;-75
2022/11/01 07:12:43;;;;;;;;;;;12.00;99.90;;;;;;5114330;28;19907;-76
2022/11/01 07:15:09;;;;;;;;;;;12.00;99.90;;;;;;5114605;28;19968;-75
2022/11/01 07:17:35;;;;;;;;;;;12.10;99.90;;;;;;5114326;28;19908;-76
2022/11/01 07:20:00;;;;;;;;;;;12.10;99.90;;;;;;5114248;28;19914;-76
2022/11/01 07:22:26;;;;;;;;;;;12.10;99.90;;;;;;5114185;28;20274;-77
2022/11/01 07:24:51;;;;;;;;;;;12.20;99.90;;;;;;5114403;28;19916;-77
2022/11/01 07:27:17;;;;;;;;;;;12.20;99.90;;;;;;5114162;28;19908;-77
2022/11/01 07:29:42;;;;;;;;;;;12.20;99.90;;;;;;5114174;28;20383;-76
2022/11/01 07:32:08;;;;;;;;;;;12.20;99.90;;;;;;5114400;28;20002;-76
2022/11/01 07:34:33;;;;;;;;;;;12.30;99.90;;;;;;5114075;28;19908;-76
2022/11/01 07:36:59;;;;;;;;;;;12.30;99.90;;;;;;5114370;28;20284;-75
2022/11/01 07:39:25;;;;;;;;;;;12.40;99.90;;;;;;5114037;28;19914;-75
2022/11/01 07:41:52;;;;;;;;;;;12.50;99.90;;;;;;5113999;28;19908;-76
2022/11/01 07:44:18;;;;;;;;;;;12.50;99.90;;;;;;5114259;28;19950;-77
2022/11/01 07:46:43;;;;;;;;;;;12.50;99.90;;;;;;5114031;28;19908;-77
2022/11/01 07:49:09;;;;;;;;;;;12.60;99.90;;;;;;5114238;28;19939;-76
2022/11/01 07:51:34;;;;;;;;;;;12.70;99.90;;;;;;5114741;28;19908;-76
2022/11/01 07:54:00;;;;;;;;;;;12.70;99.90;;;;;;5113915;28;19908;-76
2022/11/01 07:56:25;;;;;;;;;;;12.80;99.90;;;;;;5114461;28;19908;-76
2022/11/01 07:58:51;;;;;;;;;;;12.80;99.90;;;;;;5113884;28;19915;-76
2022/11/01 08:01:16;;;;;;;;;;;12.90;99.90;;;;;;5113893;28;20292;-76
2022/11/01 08:03:42;;;;;;;;;;;12.90;99.90;;;;;;5114070;28;19962;-76
2022/11/01 08:06:08;;;;;;;;;;;13.00;99.90;;;;;;5113822;28;19908;-77
2022/11/01 08:08:33;;;;;;;;;;;13.00;99.90;;;;;;5113800;28;19915;-76
2022/11/01 08:11:01;;;;;;;;;;;13.10;99.90;;;;;;5114088;28;19912;-76
2022/11/01 08:13:27;;;;;;;;;;;13.20;99.90;;;;;;5115511;28;19914;-77
2022/11/01 08:15:53;;;;;;;;;;;13.40;99.90;;;;;;5117972;28;20367;-77
2022/11/01 08:18:26;;;;;;;;;;;13.40;99.90;;;;;;5117559;28;20065;-75
2022/11/01 08:20:51;;;;;;;;;;;13.50;99.90;;;;;;5118216;28;19915;-76
2022/11/01 08:23:17;;;;;;;;;;;13.50;99.90;;;;;;5117342;28;19907;-76
2022/11/01 08:25:43;;;;;;;;;;;13.50;99.90;;;;;;5117774;28;19911;-76
2022/11/01 08:28:17;;;;;;;;;;;13.50;99.90;;;;;;5117486;28;19950;-76
2022/11/01 08:30:43;;;;;;;;;;;13.60;99.90;;;;;;5117705;28;19915;-76
2022/11/01 08:33:09;;;;;;;;;;;13.70;99.90;;;;;;5117331;28;19965;-77
2022/11/01 08:35:35;;;;;;;;;;;13.80;99.90;;;;;;5117309;28;19947;-77
2022/11/01 08:38:04;;;;;;;;;;;13.90;99.90;;;;;;5117257;28;19915;-76
2022/11/01 08:40:30;;;;;;;;;;;14.00;99.90;;;;;;5117527;28;19908;-75
2022/11/01 08:42:56;;;;;;;;;;;14.30;99.90;;;;;;5117198;28;19957;-75
2022/11/01 08:45:22;;;;;;;;;;;14.70;99.90;;;;;;5117307;28;19911;-76
2022/11/01 08:47:48;;;;;;;;;;;15.10;99.90;;;;;;5117298;28;19914;-75
2022/11/01 08:50:14;;;;;;;;;;;15.50;99.90;;;;;;5117020;28;19915;-75
2022/11/01 08:52:40;;;;;;;;;;;15.70;99.90;;;;;;5117496;28;19907;-75
2022/11/01 08:55:06;;;;;;;;;;;16.00;99.90;;;;;;5117469;28;19908;-76
2022/11/01 08:57:32;;;;;;;;;;;16.10;99.90;;;;;;5116777;28;19995;-75
2022/11/01 08:59:57;;;;;;;;;;;16.30;99.90;;;;;;5116844;28;20049;-76
2022/11/01 09:02:23;;;;;;;;;;;16.40;99.90;;;;;;5116675;28;19920;-75
2022/11/01 09:04:48;;;;;;;;;;;16.50;99.90;;;;;;5116920;28;19919;-76
2022/11/01 09:07:14;;;;;;;;;;;16.70;99.90;;;;;;5116685;28;19915;-76
2022/11/01 09:09:40;;;;;;;;;;;16.60;99.90;;;;;;5116942;28;19951;-76
2022/11/01 09:12:05;;;;;;;;;;;16.40;99.90;;;;;;5116607;28;19908;-76
2022/11/01 09:14:31;;;;;;;;;;;16.20;99.90;;;;;;5117110;28;19957;-76
2022/11/01 09:16:56;;;;;;;;;;;16.00;99.90;;;;;;5116514;28;20399;-76
2022/11/01 09:19:22;;;;;;;;;;;15.80;99.90;;;;;;5116470;28;19908;-76
2022/11/01 09:21:47;;;;;;;;;;;16.00;99.90;;;;;;5116709;28;19977;-76
2022/11/01 09:24:14;;;;;;;;;;;16.30;99.90;;;;;;5115613;28;19912;-76
2022/11/01 09:26:40;;;;;;;;;;;16.20;99.90;;;;;;5116706;28;19998;-75
2022/11/01 09:29:06;;;;;;;;;;;16.20;99.90;;;;;;5116231;28;20414;-77
2022/11/01 09:31:32;;;;;;;;;;;16.20;99.90;;;;;;5116768;28;19912;-75
2022/11/01 09:33:59;;;;;;;;;;;16.30;99.90;;;;;;5116208;28;19908;-75
2022/11/01 09:36:25;;;;;;;;;;;16.40;99.90;;;;;;5116137;28;19908;-76
2022/11/01 09:38:52;;;;;;;;;;;16.40;99.90;;;;;;5116021;28;20045;-76
2022/11/01 09:41:32;;;;;;;;;;;16.40;99.90;;;;;;5118743;28;19915;-75
2022/11/01 09:44:00;;;;;;;;;;;16.50;99.90;;;;;;5119818;28;20280;-76
2022/11/01 09:46:30;;;;;;;;;;;16.40;99.90;;;;;;5118461;28;19915;-77
2022/11/01 09:48:57;;;;;;;;;;;16.20;99.90;;;;;;5115924;28;19931;-76
2022/11/01 09:51:23;;;;;;;;;;;16.00;99.90;;;;;;5116369;28;19915;-76
2022/11/01 09:53:51;;;;;;;;;;;15.90;99.90;;;;;;5116085;28;19911;-76
2022/11/01 09:56:22;;;;;;;;;;;15.80;99.90;;;;;;5116019;28;19908;-77
2022/11/01 09:58:48;;;;;;;;;;;15.80;99.90;;;;;;5115703;28;20355;-76
2022/11/01 10:01:14;;;;;;;;;;;15.80;99.90;;;;;;5115688;28;19916;-76
2022/11/01 10:03:46;;;;;;;;;;;15.60;99.90;;;;;;5116113;28;19938;-76
2022/11/01 10:06:41;;;;;;;;;;;15.60;99.90;;;;;;5115555;28;19994;-76
2022/11/01 10:09:06;;;;;;;;;;;15.50;99.90;;;;;;5025570;28;20481;-76
2022/11/01 10:11:41;;;;;;;;;;;15.50;99.90;;;;;;5116027;28;19908;-77
2022/11/01 10:14:17;;;;;;;;;;;15.50;99.90;;;;;;5115391;28;19911;-76
2022/11/01 10:17:03;;;;;;;;;;;15.50;99.90;;;;;;5115313;28;19918;-76
2022/11/01 10:19:32;;;;;;;;;;;15.50;99.90;;;;;;5097263;28;19950;-78
2022/11/01 10:22:01;;;;;;;;;;;15.50;99.90;;;;;;5096814;28;20335;-77
2022/11/01 10:24:27;;;;;;;;;;;15.50;99.90;;;;;;5115667;28;19912;-76
2022/11/01 10:26:55;;;;;;;;;;;15.50;99.90;;;;;;5115101;28;20352;-78
2022/11/01 10:29:24;;;;;;;;;;;15.50;99.90;;;;;;5115076;28;20394;-77
2022/11/01 10:31:52;;;;;;;;;;;15.50;99.90;;;;;;5115588;28;19935;-78
2022/11/01 10:34:17;;;;;;;;;;;15.60;99.90;;;;;;5114865;28;19960;-76
2022/11/01 10:36:43;;;;;;;;;;;15.60;99.90;;;;;;5115187;28;19915;-76
2022/11/01 10:39:14;;;;;;;;;;;15.60;99.90;;;;;;5114871;28;19912;-77
2022/11/01 10:41:52;;;;;;;;;;;15.70;99.90;;;;;;5114778;28;19911;-76
2022/11/01 10:44:17;;;;;;;;;;;15.80;99.90;;;;;;5114640;28;19919;-77
2022/11/01 10:46:44;;;;;;;;;;;15.90;99.90;;;;;;5115300;28;19912;-77
2022/11/01 10:49:39;;;;;;;;;;;16.00;99.90;;;;;;5114712;28;19915;-77
2022/11/01 10:52:06;;;;;;;;;;;16.00;99.90;;;;;;5093430;28;19908;-76
2022/11/01 10:54:35;;;;;;;;;;;16.00;99.90;;;;;;5114907;28;19908;-76
2022/11/01 10:57:03;;;;;;;;;;;16.10;99.90;;;;;;5114509;28;20375;-76
2022/11/01 10:59:32;;;;;;;;;;;16.10;99.90;;;;;;5114541;28;19912;-79
2022/11/01 11:01:59;;;;;;;;;;;16.20;99.90;;;;;;5114103;28;20012;-78
2022/11/01 11:04:25;;;;;;;;;;;16.20;99.90;;;;;;5114658;28;19978;-77
2022/11/01 11:06:52;;;;;;;;;;;16.20;99.90;;;;;;5113640;28;20322;-78
2022/11/01 11:09:21;;;;;;;;;;;16.20;99.90;;;;;;5096112;28;19957;-76
2022/11/01 11:11:47;;;;;;;;;;;16.20;99.90;;;;;;5114234;28;19998;-76
2022/11/01 11:14:13;;;;;;;;;;;16.20;99.90;;;;;;5096083;28;19911;-78
2022/11/01 11:16:39;;;;;;;;;;;16.10;99.90;;;;;;5114266;28;19912;-76
2022/11/01 11:19:07;;;;;;;;;;;16.10;99.90;;;;;;5114535;28;19914;-77
2022/11/01 11:21:33;;;;;;;;;;;16.00;99.90;;;;;;5114244;28;19908;-77
2022/11/01 11:23:59;;;;;;;;;;;16.10;99.90;;;;;;5114167;28;19916;-76
2022/11/01 11:26:25;;;;;;;;;;;16.10;99.90;;;;;;5114717;28;20310;-78
2022/11/01 11:28:52;;;;;;;;;;;16.10;99.90;;;;;;5114398;28;20416;-77
2022/11/01 11:31:17;;;;;;;;;;;15.90;99.90;;;;;;5114127;28;19908;-77
2022/11/01 11:33:51;;;;;;;;;;;15.80;99.90;;;;;;5114077;28;19976;-76
2022/11/01 11:36:23;;;;;;;;;;;15.80;99.90;;;;;;5114400;28;19907;-77
2022/11/01 11:38:50;;;;;;;;;;;15.80;99.90;;;;;;5114371;28;19912;-76
2022/11/01 11:41:29;;;;;;;;;;;15.90;99.90;;;;;;5113981;28;19908;-77
2022/11/01 11:43:54;;;;;;;;;;;15.90;99.90;;;;;;5095737;28;20388;-77
2022/11/01 11:46:22;;;;;;;;;;;16.20;99.90;;;;;;5114284;28;20037;-78
2022/11/01 11:48:49;;;;;;;;;;;16.20;99.90;;;;;;5116499;28;20068;-76
2022/11/01 11:51:15;;;;;;;;;;;16.10;99.90;;;;;;5118712;28;19907;-77
2022/11/01 11:53:41;;;;;;;;;;;16.00;99.90;;;;;;5118176;28;19908;-77
2022/11/01 11:56:08;;;;;;;;;;;16.00;99.90;;;;;;5099776;28;20345;-76
2022/11/01 11:58:33;;;;;;;;;;;16.00;99.90;;;;;;5118327;28;19908;-77
2022/11/01 12:01:01;;;;;;;;;;;15.90;99.90;;;;;;5118093;28;20396;-76
2022/11/01 12:03:27;;;;;;;;;;;15.90;99.90;;;;;;5118512;28;20279;-79
2022/11/01 12:06:13;;;;;;;;;;;15.90;99.90;;;;;;5117897;28;19908;-77
2022/11/01 12:08:43;;;;;;;;;;;16.00;99.90;;;;;;5099945;28;19919;-76
2022/11/01 12:11:09;;;;;;;;;;;16.10;99.90;;;;;;5118340;28;19918;-77
2022/11/01 12:13:40;;;;;;;;;;;16.30;99.90;;;;;;5118078;28;19907;-76
2022/11/01 12:16:11;;;;;;;;;;;16.20;99.90;;;;;;5118331;28;19912;-76
2022/11/01 12:18:56;;;;;;;;;;;16.20;99.90;;;;;;5117632;28;19908;-78
2022/11/01 12:21:24;;;;;;;;;;;16.20;99.90;;;;;;5117604;28;20003;-76
2022/11/01 12:23:55;;;;;;;;;;;16.30;99.90;;;;;;5099079;28;19916;-77
2022/11/01 12:26:22;;;;;;;;;;;16.30;99.90;;;;;;5117493;28;19916;-77
2022/11/01 12:28:52;;;;;;;;;;;16.30;99.90;;;;;;5118017;28;19998;-76
2022/11/01 12:31:18;;;;;;;;;;;16.30;99.90;;;;;;5117417;28;19954;-76
2022/11/01 12:33:47;;;;;;;;;;;16.20;99.90;;;;;;5117905;28;20004;-78
2022/11/01 12:36:13;;;;;;;;;;;16.10;99.90;;;;;;5117364;28;20363;-76
2022/11/01 12:38:48;;;;;;;;;;;16.00;99.90;;;;;;5117545;28;19911;-77
2022/11/01 12:41:32;;;;;;;;;;;15.90;99.90;;;;;;5117268;28;20371;-77
2022/11/01 12:44:04;;;;;;;;;;;15.80;99.90;;;;;;5117141;28;19962;-78
2022/11/01 12:46:33;;;;;;;;;;;15.60;99.90;;;;;;5117432;28;19908;-77
2022/11/01 12:49:03;;;;;;;;;;;15.50;99.90;;;;;;5117251;28;19954;-76
2022/11/01 12:51:31;;;;;;;;;;;15.30;99.90;;;;;;5117556;28;19934;-76
2022/11/01 12:54:00;;;;;;;;;;;15.20;99.90;;;;;;5117266;28;19908;-77
2022/11/01 12:56:25;;;;;;;;;;;15.10;99.90;;;;;;5117161;28;19908;-77
2022/11/01 12:58:52;;;;;;;;;;;15.10;99.90;;;;;;5116655;28;19941;-76
2022/11/01 13:01:29;;;;;;;;;;;15.10;99.90;;;;;;5115917;28;19915;-76
2022/11/01 13:03:55;;;;;;;;;;;15.20;99.90;;;;;;5116574;28;19911;-76
2022/11/01 13:06:39;;;;;;;;;;;15.30;99.90;;;;;;5117036;28;19908;-76
2022/11/01 13:09:25;;;;;;;;;;;15.50;99.90;;;;;;5116691;28;19915;-77
2022/11/01 13:11:51;;;;;;;;;;;15.60;99.90;;;;;;5098895;28;20395;-76
2022/11/01 13:14:25;;;;;;;;;;;15.60;99.90;;;;;;5117161;28;19907;-77
2022/11/01 13:16:56;;;;;;;;;;;15.50;99.90;;;;;;5116556;28;19990;-76
2022/11/01 13:19:25;;;;;;;;;;;15.40;99.90;;;;;;5117085;28;19961;-77
2022/11/01 13:21:57;;;;;;;;;;;15.30;99.90;;;;;;5116442;28;19914;-77
2022/11/01 13:24:34;;;;;;;;;;;15.30;99.90;;;;;;5116634;28;19921;-77
2022/11/01 13:27:04;;;;;;;;;;;15.20;99.90;;;;;;5116654;28;20325;-76
2022/11/01 13:29:29;;;;;;;;;;;15.20;99.90;;;;;;5116550;28;19912;-76
2022/11/01 13:31:56;;;;;;;;;;;15.20;99.90;;;;;;5116232;28;20271;-78
2022/11/01 13:34:31;;;;;;;;;;;15.20;99.90;;;;;;5116814;28;20275;-76
2022/11/01 13:36:56;;;;;;;;;;;15.10;99.90;;;;;;5116420;28;19907;-77
2022/11/01 13:39:24;;;;;;;;;;;15.20;99.90;;;;;;5116402;28;19992;-77
2022/11/01 13:42:09;;;;;;;;;;;15.10;99.90;;;;;;5116038;28;20041;-77
2022/11/01 13:44:37;;;;;;;;;;;15.10;99.90;;;;;;5116218;28;19912;-77
2022/11/01 13:47:22;;;;;;;;;;;14.90;99.90;;;;;;5116313;28;20038;-77
2022/11/01 13:49:56;;;;;;;;;;;14.90;99.90;;;;;;5115938;28;20423;-76
2022/11/01 13:52:27;;;;;;;;;;;14.90;99.90;;;;;;5116681;28;19956;-76
2022/11/01 13:54:55;;;;;;;;;;;14.90;99.90;;;;;;5115827;28;20295;-77
2022/11/01 13:57:23;;;;;;;;;;;15.00;99.90;;;;;;5115724;28;20288;-77
2022/11/01 13:59:49;;;;;;;;;;;15.00;99.90;;;;;;5116286;28;20299;-76
2022/11/01 14:02:26;;;;;;;;;;;15.00;99.90;;;;;;5115591;28;19919;-76
2022/11/01 14:05:01;;;;;;;;;;;15.10;99.90;;;;;;5097051;28;20295;-76
2022/11/01 14:07:52;;;;;;;;;;;15.10;99.90;;;;;;5115472;28;20283;-77
2022/11/01 14:10:20;;;;;;;;;;;15.20;99.90;;;;;;5069244;28;19957;-77
2022/11/01 14:13:05;;;;;;;;;;;15.20;99.90;;;;;;5097045;28;20314;-76
2022/11/01 14:15:33;;;;;;;;;;;15.10;99.90;;;;;;5097331;28;19908;-76
2022/11/01 14:18:02;;;;;;;;;;;15.10;99.90;;;;;;5115909;28;19964;-76
2022/11/01 14:20:28;;;;;;;;;;;15.20;99.90;;;;;;5115277;28;20359;-76
2022/11/01 14:22:54;;;;;;;;;;;15.20;99.90;;;;;;5115133;28;19995;-75
2022/11/01 14:25:19;;;;;;;;;;;15.20;99.90;;;;;;5115389;28;19925;-76